sensor_id;sensor_type;location;lat;lon;timestamp;temperature;humidity
62809;DHT22;48848;39.002;-94.584;2023-04-24T00:01:29;19.90;36.80
62809;DHT22;48848;39.002;-94.584;2023-04-24T00:03:55;19.90;36.60
62809;DHT22;48848;39.002;-94.584;2023-04-24T00:06:25;19.90;36.60
62809;DHT22;48848;39.002;-94.584;2023-04-24T00:09:01;19.90;36.60
62809;DHT22;48848;39.002;-94.584;2023-04-24T00:11:27;19.90;36.80
62809;DHT22;48848;39.002;-94.584;2023-04-24T00:13:53;19.90;36.60
62809;DHT22;48848;39.002;-94.584;2023-04-24T00:16:19;19.90;36.60
62809;DHT22;48848;39.002;-94.584;2023-04-24T00:18:45;19.80;36.80
62809;DHT22;48848;39.002;-94.584;2023-04-24T00:21:13;19.80;36.80
62809;DHT22;48848;39.002;-94.584;2023-04-24T00:23:40;19.90;36.90
62809;DHT22;48848;39.002;-94.584;2023-04-24T00:26:07;19.90;36.90
62809;DHT22;48848;39.002;-94.584;2023-04-24T00:28:33;19.90;36.80
62809;DHT22;48848;39.002;-94.584;2023-04-24T00:30:59;19.90;37.30
62809;DHT22;48848;39.002;-94.584;2023-04-24T00:33:25;19.80;35.80
62809;DHT22;48848;39.002;-94.584;2023-04-24T00:35:50;19.80;35.70
62809;DHT22;48848;39.002;-94.584;2023-04-24T00:38:16;19.90;36.40
62809;DHT22;48848;39.002;-94.584;2023-04-24T00:40:42;19.90;36.60
62809;DHT22;48848;39.002;-94.584;2023-04-24T00:43:09;19.80;36.10
62809;DHT22;48848;39.002;-94.584;2023-04-24T00:45:35;19.80;36.20
62809;DHT22;48848;39.002;-94.584;2023-04-24T00:48:02;19.80;35.50
62809;DHT22;48848;39.002;-94.584;2023-04-24T00:50:28;19.80;35.90
62809;DHT22;48848;39.002;-94.584;2023-04-24T00:52:54;19.80;36.40
62809;DHT22;48848;39.002;-94.584;2023-04-24T00:55:20;19.80;36.40
62809;DHT22;48848;39.002;-94.584;2023-04-24T00:57:46;19.80;36.40
62809;DHT22;48848;39.002;-94.584;2023-04-24T01:00:12;19.80;36.50
62809;DHT22;48848;39.002;-94.584;2023-04-24T01:02:39;19.70;36.60
62809;DHT22;48848;39.002;-94.584;2023-04-24T01:05:09;19.70;36.60
62809;DHT22;48848;39.002;-94.584;2023-04-24T01:07:36;19.70;36.60
62809;DHT22;48848;39.002;-94.584;2023-04-24T01:10:02;19.60;36.80
62809;DHT22;48848;39.002;-94.584;2023-04-24T01:12:28;19.60;38.00
62809;DHT22;48848;39.002;-94.584;2023-04-24T01:14:54;19.60;37.50
62809;DHT22;48848;39.002;-94.584;2023-04-24T01:17:22;19.50;37.30
62809;DHT22;48848;39.002;-94.584;2023-04-24T01:19:48;19.50;38.20
62809;DHT22;48848;39.002;-94.584;2023-04-24T01:22:14;19.50;40.00
62809;DHT22;48848;39.002;-94.584;2023-04-24T01:24:41;19.40;38.30
62809;DHT22;48848;39.002;-94.584;2023-04-24T01:27:08;19.40;37.80
62809;DHT22;48848;39.002;-94.584;2023-04-24T01:29:35;19.30;37.70
62809;DHT22;48848;39.002;-94.584;2023-04-24T01:32:03;19.30;37.70
62809;DHT22;48848;39.002;-94.584;2023-04-24T01:34:29;19.30;37.70
62809;DHT22;48848;39.002;-94.584;2023-04-24T01:36:55;19.30;37.80
62809;DHT22;48848;39.002;-94.584;2023-04-24T01:39:22;19.20;37.80
62809;DHT22;48848;39.002;-94.584;2023-04-24T01:41:54;19.20;38.40
62809;DHT22;48848;39.002;-94.584;2023-04-24T01:44:20;19.10;37.90
62809;DHT22;48848;39.002;-94.584;2023-04-24T01:46:46;19.10;38.00
62809;DHT22;48848;39.002;-94.584;2023-04-24T01:49:12;19.00;38.00
62809;DHT22;48848;39.002;-94.584;2023-04-24T01:51:38;19.00;38.10
62809;DHT22;48848;39.002;-94.584;2023-04-24T01:54:04;19.00;38.00
62809;DHT22;48848;39.002;-94.584;2023-04-24T01:56:30;18.90;38.00
62809;DHT22;48848;39.002;-94.584;2023-04-24T01:58:58;18.80;38.00
62809;DHT22;48848;39.002;-94.584;2023-04-24T02:01:25;18.90;38.10
62809;DHT22;48848;39.002;-94.584;2023-04-24T02:03:51;18.80;38.10
62809;DHT22;48848;39.002;-94.584;2023-04-24T02:06:17;18.80;38.20
62809;DHT22;48848;39.002;-94.584;2023-04-24T02:08:42;18.70;38.00
62809;DHT22;48848;39.002;-94.584;2023-04-24T02:11:09;18.70;38.10
62809;DHT22;48848;39.002;-94.584;2023-04-24T02:13:35;18.60;38.10
62809;DHT22;48848;39.002;-94.584;2023-04-24T02:16:01;18.60;38.10
62809;DHT22;48848;39.002;-94.584;2023-04-24T02:18:27;18.60;38.10
62809;DHT22;48848;39.002;-94.584;2023-04-24T02:20:52;18.60;38.10
62809;DHT22;48848;39.002;-94.584;2023-04-24T02:23:19;18.60;38.30
62809;DHT22;48848;39.002;-94.584;2023-04-24T02:25:45;18.60;38.30
62809;DHT22;48848;39.002;-94.584;2023-04-24T02:28:11;18.50;38.30
62809;DHT22;48848;39.002;-94.584;2023-04-24T02:30:37;18.50;38.30
62809;DHT22;48848;39.002;-94.584;2023-04-24T02:33:02;18.50;38.40
62809;DHT22;48848;39.002;-94.584;2023-04-24T02:35:28;18.50;38.40
62809;DHT22;48848;39.002;-94.584;2023-04-24T02:37:55;18.50;38.40
62809;DHT22;48848;39.002;-94.584;2023-04-24T02:40:21;18.90;38.00
62809;DHT22;48848;39.002;-94.584;2023-04-24T02:42:46;19.50;37.00
62809;DHT22;48848;39.002;-94.584;2023-04-24T02:45:12;19.90;36.20
62809;DHT22;48848;39.002;-94.584;2023-04-24T02:47:38;20.40;35.90
62809;DHT22;48848;39.002;-94.584;2023-04-24T02:50:04;20.30;35.40
62809;DHT22;48848;39.002;-94.584;2023-04-24T02:52:30;19.90;36.20
62809;DHT22;48848;39.002;-94.584;2023-04-24T02:54:56;19.70;36.90
62809;DHT22;48848;39.002;-94.584;2023-04-24T02:57:23;19.40;37.30
62809;DHT22;48848;39.002;-94.584;2023-04-24T02:59:49;19.20;37.80
62809;DHT22;48848;39.002;-94.584;2023-04-24T03:02:15;19.10;37.90
62809;DHT22;48848;39.002;-94.584;2023-04-24T03:04:41;19.00;38.10
62809;DHT22;48848;39.002;-94.584;2023-04-24T03:07:08;18.90;38.20
62809;DHT22;48848;39.002;-94.584;2023-04-24T03:09:34;18.80;38.50
62809;DHT22;48848;39.002;-94.584;2023-04-24T03:12:00;18.80;39.00
62809;DHT22;48848;39.002;-94.584;2023-04-24T03:14:26;18.80;39.20
62809;DHT22;48848;39.002;-94.584;2023-04-24T03:16:52;18.70;40.70
62809;DHT22;48848;39.002;-94.584;2023-04-24T03:19:17;18.70;40.20
62809;DHT22;48848;39.002;-94.584;2023-04-24T03:21:43;18.70;40.60
62809;DHT22;48848;39.002;-94.584;2023-04-24T03:24:09;18.70;41.70
62809;DHT22;48848;39.002;-94.584;2023-04-24T03:26:35;18.60;40.60
62809;DHT22;48848;39.002;-94.584;2023-04-24T03:29:01;18.60;40.70
62809;DHT22;48848;39.002;-94.584;2023-04-24T03:31:27;18.60;40.60
62809;DHT22;48848;39.002;-94.584;2023-04-24T03:33:53;18.50;40.40
62809;DHT22;48848;39.002;-94.584;2023-04-24T03:36:19;18.40;40.30
62809;DHT22;48848;39.002;-94.584;2023-04-24T03:38:44;18.40;40.20
62809;DHT22;48848;39.002;-94.584;2023-04-24T03:41:11;18.30;39.90
62809;DHT22;48848;39.002;-94.584;2023-04-24T03:43:37;18.30;39.30
62809;DHT22;48848;39.002;-94.584;2023-04-24T03:46:03;18.20;39.30
62809;DHT22;48848;39.002;-94.584;2023-04-24T03:48:29;18.20;39.50
62809;DHT22;48848;39.002;-94.584;2023-04-24T03:50:56;18.10;39.30
62809;DHT22;48848;39.002;-94.584;2023-04-24T03:53:23;18.10;39.30
62809;DHT22;48848;39.002;-94.584;2023-04-24T03:55:49;18.00;39.50
62809;DHT22;48848;39.002;-94.584;2023-04-24T03:58:15;18.00;39.00
62809;DHT22;48848;39.002;-94.584;2023-04-24T04:00:41;18.00;39.10
62809;DHT22;48848;39.002;-94.584;2023-04-24T04:03:07;18.00;39.00
62809;DHT22;48848;39.002;-94.584;2023-04-24T04:05:34;18.00;38.80
62809;DHT22;48848;39.002;-94.584;2023-04-24T04:08:00;18.10;38.70
62809;DHT22;48848;39.002;-94.584;2023-04-24T04:10:26;18.10;38.60
62809;DHT22;48848;39.002;-94.584;2023-04-24T04:12:51;18.10;38.70
62809;DHT22;48848;39.002;-94.584;2023-04-24T04:15:17;18.10;38.60
62809;DHT22;48848;39.002;-94.584;2023-04-24T04:17:43;18.00;38.60
62809;DHT22;48848;39.002;-94.584;2023-04-24T04:20:11;18.00;38.60
62809;DHT22;48848;39.002;-94.584;2023-04-24T04:22:37;18.00;38.60
62809;DHT22;48848;39.002;-94.584;2023-04-24T04:25:03;17.90;38.60
62809;DHT22;48848;39.002;-94.584;2023-04-24T04:27:30;17.90;38.80
62809;DHT22;48848;39.002;-94.584;2023-04-24T04:29:58;17.90;38.70
62809;DHT22;48848;39.002;-94.584;2023-04-24T04:32:26;17.90;38.80
62809;DHT22;48848;39.002;-94.584;2023-04-24T04:34:52;17.80;38.80
62809;DHT22;48848;39.002;-94.584;2023-04-24T04:37:19;17.80;38.80
62809;DHT22;48848;39.002;-94.584;2023-04-24T04:39:46;17.70;38.80
62809;DHT22;48848;39.002;-94.584;2023-04-24T04:42:12;17.70;38.80
62809;DHT22;48848;39.002;-94.584;2023-04-24T04:44:39;17.70;39.00
62809;DHT22;48848;39.002;-94.584;2023-04-24T04:47:05;17.70;39.00
62809;DHT22;48848;39.002;-94.584;2023-04-24T04:49:31;17.70;39.10
62809;DHT22;48848;39.002;-94.584;2023-04-24T04:51:57;17.60;39.10
62809;DHT22;48848;39.002;-94.584;2023-04-24T04:54:23;17.60;39.20
62809;DHT22;48848;39.002;-94.584;2023-04-24T04:56:49;17.60;39.20
62809;DHT22;48848;39.002;-94.584;2023-04-24T04:59:15;17.50;39.30
62809;DHT22;48848;39.002;-94.584;2023-04-24T05:01:43;17.50;39.30
62809;DHT22;48848;39.002;-94.584;2023-04-24T05:04:08;17.50;39.30
62809;DHT22;48848;39.002;-94.584;2023-04-24T05:06:34;17.50;39.40
62809;DHT22;48848;39.002;-94.584;2023-04-24T05:09:00;17.50;39.40
62809;DHT22;48848;39.002;-94.584;2023-04-24T05:11:26;17.50;39.60
62809;DHT22;48848;39.002;-94.584;2023-04-24T05:13:52;17.40;39.50
62809;DHT22;48848;39.002;-94.584;2023-04-24T05:16:18;17.40;39.60
62809;DHT22;48848;39.002;-94.584;2023-04-24T05:18:44;17.40;39.70
62809;DHT22;48848;39.002;-94.584;2023-04-24T05:21:10;17.30;39.70
62809;DHT22;48848;39.002;-94.584;2023-04-24T05:23:35;17.30;39.70
62809;DHT22;48848;39.002;-94.584;2023-04-24T05:26:01;17.30;39.80
62809;DHT22;48848;39.002;-94.584;2023-04-24T05:28:28;17.30;39.80
62809;DHT22;48848;39.002;-94.584;2023-04-24T05:30:54;17.20;39.90
62809;DHT22;48848;39.002;-94.584;2023-04-24T05:33:21;17.20;39.80
62809;DHT22;48848;39.002;-94.584;2023-04-24T05:35:47;17.20;39.90
62809;DHT22;48848;39.002;-94.584;2023-04-24T05:38:14;17.20;40.00
62809;DHT22;48848;39.002;-94.584;2023-04-24T05:40:43;17.10;40.00
62809;DHT22;48848;39.002;-94.584;2023-04-24T05:43:08;17.10;39.90
62809;DHT22;48848;39.002;-94.584;2023-04-24T05:45:34;17.10;40.00
62809;DHT22;48848;39.002;-94.584;2023-04-24T05:48:01;17.00;40.10
62809;DHT22;48848;39.002;-94.584;2023-04-24T05:50:27;17.00;40.00
62809;DHT22;48848;39.002;-94.584;2023-04-24T05:52:53;17.00;40.10
62809;DHT22;48848;39.002;-94.584;2023-04-24T05:55:19;17.00;40.10
62809;DHT22;48848;39.002;-94.584;2023-04-24T05:57:45;16.90;40.20
62809;DHT22;48848;39.002;-94.584;2023-04-24T06:00:11;16.90;40.20
62809;DHT22;48848;39.002;-94.584;2023-04-24T06:02:40;16.90;40.20
62809;DHT22;48848;39.002;-94.584;2023-04-24T06:05:06;16.90;40.30
62809;DHT22;48848;39.002;-94.584;2023-04-24T06:07:31;16.90;40.40
62809;DHT22;48848;39.002;-94.584;2023-04-24T06:09:57;16.90;40.40
62809;DHT22;48848;39.002;-94.584;2023-04-24T06:12:23;16.80;40.30
62809;DHT22;48848;39.002;-94.584;2023-04-24T06:14:49;16.80;40.40
62809;DHT22;48848;39.002;-94.584;2023-04-24T06:17:15;16.80;40.50
62809;DHT22;48848;39.002;-94.584;2023-04-24T06:19:41;16.70;40.40
62809;DHT22;48848;39.002;-94.584;2023-04-24T06:22:07;16.70;40.40
62809;DHT22;48848;39.002;-94.584;2023-04-24T06:24:33;16.70;40.50
62809;DHT22;48848;39.002;-94.584;2023-04-24T06:26:59;16.70;40.60
62809;DHT22;48848;39.002;-94.584;2023-04-24T06:29:26;16.70;40.60
62809;DHT22;48848;39.002;-94.584;2023-04-24T06:31:52;16.70;40.70
62809;DHT22;48848;39.002;-94.584;2023-04-24T06:34:18;16.60;40.70
62809;DHT22;48848;39.002;-94.584;2023-04-24T06:36:44;16.60;40.70
62809;DHT22;48848;39.002;-94.584;2023-04-24T06:39:10;16.60;40.70
62809;DHT22;48848;39.002;-94.584;2023-04-24T06:41:36;16.50;40.70
62809;DHT22;48848;39.002;-94.584;2023-04-24T06:44:02;16.50;40.70
62809;DHT22;48848;39.002;-94.584;2023-04-24T06:46:28;16.50;40.70
62809;DHT22;48848;39.002;-94.584;2023-04-24T06:48:54;16.50;40.80
62809;DHT22;48848;39.002;-94.584;2023-04-24T06:51:23;16.50;40.90
62809;DHT22;48848;39.002;-94.584;2023-04-24T06:53:49;16.40;41.90
62809;DHT22;48848;39.002;-94.584;2023-04-24T06:56:15;16.40;40.90
62809;DHT22;48848;39.002;-94.584;2023-04-24T06:58:41;16.40;41.10
62809;DHT22;48848;39.002;-94.584;2023-04-24T07:01:07;16.40;41.00
62809;DHT22;48848;39.002;-94.584;2023-04-24T07:03:33;16.40;41.10
62809;DHT22;48848;39.002;-94.584;2023-04-24T07:05:59;16.40;41.10
62809;DHT22;48848;39.002;-94.584;2023-04-24T07:08:25;16.30;41.10
62809;DHT22;48848;39.002;-94.584;2023-04-24T07:10:50;16.30;41.10
62809;DHT22;48848;39.002;-94.584;2023-04-24T07:13:16;16.30;41.10
62809;DHT22;48848;39.002;-94.584;2023-04-24T07:15:43;16.20;41.10
62809;DHT22;48848;39.002;-94.584;2023-04-24T07:18:09;16.20;41.10
62809;DHT22;48848;39.002;-94.584;2023-04-24T07:20:35;16.20;41.10
62809;DHT22;48848;39.002;-94.584;2023-04-24T07:23:01;16.20;41.10
62809;DHT22;48848;39.002;-94.584;2023-04-24T07:25:27;16.10;41.10
62809;DHT22;48848;39.002;-94.584;2023-04-24T07:27:53;16.10;41.30
62809;DHT22;48848;39.002;-94.584;2023-04-24T07:30:19;16.10;41.30
62809;DHT22;48848;39.002;-94.584;2023-04-24T07:32:44;16.10;41.20
62809;DHT22;48848;39.002;-94.584;2023-04-24T07:35:10;16.10;41.30
62809;DHT22;48848;39.002;-94.584;2023-04-24T07:37:36;16.00;41.30
62809;DHT22;48848;39.002;-94.584;2023-04-24T07:40:02;16.00;41.30
62809;DHT22;48848;39.002;-94.584;2023-04-24T07:42:29;15.90;41.30
62809;DHT22;48848;39.002;-94.584;2023-04-24T07:44:56;15.90;41.40
62809;DHT22;48848;39.002;-94.584;2023-04-24T07:47:22;15.90;41.40
62809;DHT22;48848;39.002;-94.584;2023-04-24T07:49:48;15.90;41.40
62809;DHT22;48848;39.002;-94.584;2023-04-24T07:52:15;15.90;41.50
62809;DHT22;48848;39.002;-94.584;2023-04-24T07:54:40;15.90;41.50
62809;DHT22;48848;39.002;-94.584;2023-04-24T07:57:08;15.90;41.50
62809;DHT22;48848;39.002;-94.584;2023-04-24T07:59:34;15.80;41.50
62809;DHT22;48848;39.002;-94.584;2023-04-24T08:01:59;15.80;41.50
62809;DHT22;48848;39.002;-94.584;2023-04-24T08:04:27;15.80;41.60
62809;DHT22;48848;39.002;-94.584;2023-04-24T08:06:52;15.80;41.60
62809;DHT22;48848;39.002;-94.584;2023-04-24T08:09:18;15.70;41.60
62809;DHT22;48848;39.002;-94.584;2023-04-24T08:11:44;15.70;41.60
62809;DHT22;48848;39.002;-94.584;2023-04-24T08:14:10;15.70;41.60
62809;DHT22;48848;39.002;-94.584;2023-04-24T08:16:38;15.70;41.60
62809;DHT22;48848;39.002;-94.584;2023-04-24T08:19:04;15.70;41.60
62809;DHT22;48848;39.002;-94.584;2023-04-24T08:21:30;15.70;41.60
62809;DHT22;48848;39.002;-94.584;2023-04-24T08:23:57;15.60;41.60
62809;DHT22;48848;39.002;-94.584;2023-04-24T08:26:23;15.60;41.80
62809;DHT22;48848;39.002;-94.584;2023-04-24T08:28:49;15.50;41.80
62809;DHT22;48848;39.002;-94.584;2023-04-24T08:31:15;15.60;41.80
62809;DHT22;48848;39.002;-94.584;2023-04-24T08:33:41;15.50;41.80
62809;DHT22;48848;39.002;-94.584;2023-04-24T08:36:07;15.50;41.90
62809;DHT22;48848;39.002;-94.584;2023-04-24T08:38:33;15.50;41.90
62809;DHT22;48848;39.002;-94.584;2023-04-24T08:40:59;15.50;41.90
62809;DHT22;48848;39.002;-94.584;2023-04-24T08:43:26;15.50;41.90
62809;DHT22;48848;39.002;-94.584;2023-04-24T08:45:52;15.50;41.90
62809;DHT22;48848;39.002;-94.584;2023-04-24T08:48:18;15.40;41.90
62809;DHT22;48848;39.002;-94.584;2023-04-24T08:50:44;15.40;41.90
62809;DHT22;48848;39.002;-94.584;2023-04-24T08:53:10;15.40;41.90
62809;DHT22;48848;39.002;-94.584;2023-04-24T08:55:37;15.40;41.90
62809;DHT22;48848;39.002;-94.584;2023-04-24T08:58:03;15.30;41.90
62809;DHT22;48848;39.002;-94.584;2023-04-24T09:00:29;15.30;41.90
62809;DHT22;48848;39.002;-94.584;2023-04-24T09:02:55;15.30;42.00
62809;DHT22;48848;39.002;-94.584;2023-04-24T09:05:24;15.30;42.00
62809;DHT22;48848;39.002;-94.584;2023-04-24T09:07:53;15.30;42.00
62809;DHT22;48848;39.002;-94.584;2023-04-24T09:10:20;15.20;42.00
62809;DHT22;48848;39.002;-94.584;2023-04-24T09:12:46;15.20;42.10
62809;DHT22;48848;39.002;-94.584;2023-04-24T09:15:12;15.20;42.00
62809;DHT22;48848;39.002;-94.584;2023-04-24T09:17:38;15.20;42.10
62809;DHT22;48848;39.002;-94.584;2023-04-24T09:20:04;15.20;42.10
62809;DHT22;48848;39.002;-94.584;2023-04-24T09:22:31;15.10;42.00
62809;DHT22;48848;39.002;-94.584;2023-04-24T09:25:06;15.10;42.10
62809;DHT22;48848;39.002;-94.584;2023-04-24T09:27:33;15.10;42.10
62809;DHT22;48848;39.002;-94.584;2023-04-24T09:30:00;15.00;42.10
62809;DHT22;48848;39.002;-94.584;2023-04-24T09:32:27;15.00;42.20
62809;DHT22;48848;39.002;-94.584;2023-04-24T09:35:08;15.00;42.20
62809;DHT22;48848;39.002;-94.584;2023-04-24T09:37:35;15.00;42.20
62809;DHT22;48848;39.002;-94.584;2023-04-24T09:40:17;15.00;42.20
62809;DHT22;48848;39.002;-94.584;2023-04-24T09:42:43;14.90;42.20
62809;DHT22;48848;39.002;-94.584;2023-04-24T09:45:10;14.90;42.20
62809;DHT22;48848;39.002;-94.584;2023-04-24T09:47:39;14.90;42.40
62809;DHT22;48848;39.002;-94.584;2023-04-24T09:50:16;14.80;42.30
62809;DHT22;48848;39.002;-94.584;2023-04-24T09:52:42;14.90;42.40
62809;DHT22;48848;39.002;-94.584;2023-04-24T09:55:15;14.80;42.30
62809;DHT22;48848;39.002;-94.584;2023-04-24T09:57:49;14.80;42.30
62809;DHT22;48848;39.002;-94.584;2023-04-24T10:00:22;14.80;42.40
62809;DHT22;48848;39.002;-94.584;2023-04-24T10:02:50;14.70;42.40
62809;DHT22;48848;39.002;-94.584;2023-04-24T10:05:16;14.70;42.40
62809;DHT22;48848;39.002;-94.584;2023-04-24T10:07:43;14.70;42.40
62809;DHT22;48848;39.002;-94.584;2023-04-24T10:10:09;14.70;42.50
62809;DHT22;48848;39.002;-94.584;2023-04-24T10:12:35;14.70;42.50
62809;DHT22;48848;39.002;-94.584;2023-04-24T10:15:01;14.70;42.50
62809;DHT22;48848;39.002;-94.584;2023-04-24T10:17:28;14.60;43.50
62809;DHT22;48848;39.002;-94.584;2023-04-24T10:19:54;14.60;42.60
62809;DHT22;48848;39.002;-94.584;2023-04-24T10:22:20;14.60;42.60
62809;DHT22;48848;39.002;-94.584;2023-04-24T10:24:47;14.60;42.60
62809;DHT22;48848;39.002;-94.584;2023-04-24T10:27:13;14.50;42.60
62809;DHT22;48848;39.002;-94.584;2023-04-24T10:29:40;14.50;42.60
62809;DHT22;48848;39.002;-94.584;2023-04-24T10:32:07;14.50;42.60
62809;DHT22;48848;39.002;-94.584;2023-04-24T10:34:35;14.50;42.70
62809;DHT22;48848;39.002;-94.584;2023-04-24T10:37:01;14.50;42.70
62809;DHT22;48848;39.002;-94.584;2023-04-24T10:39:27;14.40;42.60
62809;DHT22;48848;39.002;-94.584;2023-04-24T10:41:54;14.50;43.00
62809;DHT22;48848;39.002;-94.584;2023-04-24T10:44:23;15.30;42.00
62809;DHT22;48848;39.002;-94.584;2023-04-24T10:46:52;16.10;40.50
62809;DHT22;48848;39.002;-94.584;2023-04-24T10:49:27;16.50;39.50
62809;DHT22;48848;39.002;-94.584;2023-04-24T10:51:53;17.00;38.80
62809;DHT22;48848;39.002;-94.584;2023-04-24T10:56:49;17.60;37.80
62809;DHT22;48848;39.002;-94.584;2023-04-24T10:59:23;17.90;38.00
62809;DHT22;48848;39.002;-94.584;2023-04-24T11:01:53;18.10;37.10
62809;DHT22;48848;39.002;-94.584;2023-04-24T11:04:28;17.60;37.80
62809;DHT22;48848;39.002;-94.584;2023-04-24T11:06:55;17.00;38.70
62809;DHT22;48848;39.002;-94.584;2023-04-24T11:09:22;16.60;39.50
62809;DHT22;48848;39.002;-94.584;2023-04-24T11:11:47;16.40;40.20
62809;DHT22;48848;39.002;-94.584;2023-04-24T11:14:14;16.50;40.60
62809;DHT22;48848;39.002;-94.584;2023-04-24T11:16:53;17.10;39.50
62809;DHT22;48848;39.002;-94.584;2023-04-24T11:19:23;17.60;38.50
62809;DHT22;48848;39.002;-94.584;2023-04-24T11:24:25;17.90;37.70
62809;DHT22;48848;39.002;-94.584;2023-04-24T11:26:56;17.40;38.40
62809;DHT22;48848;39.002;-94.584;2023-04-24T11:29:23;17.00;39.30
62809;DHT22;48848;39.002;-94.584;2023-04-24T11:34:48;16.40;40.30
62809;DHT22;48848;39.002;-94.584;2023-04-24T11:37:14;16.30;40.60
62809;DHT22;48848;39.002;-94.584;2023-04-24T11:39:40;16.20;40.90
62809;DHT22;48848;39.002;-94.584;2023-04-24T11:42:06;16.30;41.50
62809;DHT22;48848;39.002;-94.584;2023-04-24T11:44:36;16.80;40.40
62809;DHT22;48848;39.002;-94.584;2023-04-24T11:47:05;17.40;39.30
62809;DHT22;48848;39.002;-94.584;2023-04-24T11:49:32;17.90;38.20
62809;DHT22;48848;39.002;-94.584;2023-04-24T11:52:02;17.60;38.10
62809;DHT22;48848;39.002;-94.584;2023-04-24T11:54:28;17.20;38.90
62809;DHT22;48848;39.002;-94.584;2023-04-24T11:56:55;16.90;39.60
62809;DHT22;48848;39.002;-94.584;2023-04-24T11:59:21;16.60;40.10
62809;DHT22;48848;39.002;-94.584;2023-04-24T12:01:47;16.40;40.50
62809;DHT22;48848;39.002;-94.584;2023-04-24T12:04:14;16.30;40.80
62809;DHT22;48848;39.002;-94.584;2023-04-24T12:06:40;16.20;41.00
62809;DHT22;48848;39.002;-94.584;2023-04-24T12:09:12;16.20;41.50
62809;DHT22;48848;39.002;-94.584;2023-04-24T12:11:37;16.70;40.50
62809;DHT22;48848;39.002;-94.584;2023-04-24T12:14:17;17.40;39.50
62809;DHT22;48848;39.002;-94.584;2023-04-24T12:16:47;17.90;38.40
62809;DHT22;48848;39.002;-94.584;2023-04-24T12:19:17;17.70;38.40
62809;DHT22;48848;39.002;-94.584;2023-04-24T12:21:43;17.30;39.20
62809;DHT22;48848;39.002;-94.584;2023-04-24T12:24:10;16.90;39.90
62809;DHT22;48848;39.002;-94.584;2023-04-24T12:26:36;16.70;40.30
62809;DHT22;48848;39.002;-94.584;2023-04-24T12:29:02;16.50;40.70
62809;DHT22;48848;39.002;-94.584;2023-04-24T12:31:29;16.40;41.10
62809;DHT22;48848;39.002;-94.584;2023-04-24T12:33:55;16.40;41.30
62809;DHT22;48848;39.002;-94.584;2023-04-24T12:36:21;16.20;41.50
62809;DHT22;48848;39.002;-94.584;2023-04-24T12:38:47;16.20;41.60
62809;DHT22;48848;39.002;-94.584;2023-04-24T12:41:18;16.30;42.20
62809;DHT22;48848;39.002;-94.584;2023-04-24T12:43:53;17.00;41.00
62809;DHT22;48848;39.002;-94.584;2023-04-24T12:46:19;17.60;39.80
62809;DHT22;48848;39.002;-94.584;2023-04-24T12:48:45;17.90;38.60
62809;DHT22;48848;39.002;-94.584;2023-04-24T12:51:11;17.60;39.10
62809;DHT22;48848;39.002;-94.584;2023-04-24T12:53:38;17.20;39.80
62809;DHT22;48848;39.002;-94.584;2023-04-24T12:56:05;16.90;40.50
62809;DHT22;48848;39.002;-94.584;2023-04-24T12:58:31;16.70;40.90
62809;DHT22;48848;39.002;-94.584;2023-04-24T13:00:57;16.60;41.20
62809;DHT22;48848;39.002;-94.584;2023-04-24T13:03:23;16.50;41.20
62809;DHT22;48848;39.002;-94.584;2023-04-24T13:05:49;16.40;41.40
62809;DHT22;48848;39.002;-94.584;2023-04-24T13:08:15;16.30;41.60
62809;DHT22;48848;39.002;-94.584;2023-04-24T13:10:41;16.30;41.60
62809;DHT22;48848;39.002;-94.584;2023-04-24T13:13:07;16.20;41.60
62809;DHT22;48848;39.002;-94.584;2023-04-24T13:15:33;16.50;41.70
62809;DHT22;48848;39.002;-94.584;2023-04-24T13:17:59;17.30;40.40
62809;DHT22;48848;39.002;-94.584;2023-04-24T13:20:25;17.90;39.20
62809;DHT22;48848;39.002;-94.584;2023-04-24T13:22:51;18.00;38.50
62809;DHT22;48848;39.002;-94.584;2023-04-24T13:25:17;17.60;39.00
62809;DHT22;48848;39.002;-94.584;2023-04-24T13:27:44;17.30;39.70
62809;DHT22;48848;39.002;-94.584;2023-04-24T13:30:11;17.00;40.30
62809;DHT22;48848;39.002;-94.584;2023-04-24T13:32:38;16.80;40.50
62809;DHT22;48848;39.002;-94.584;2023-04-24T13:35:04;16.70;40.90
62809;DHT22;48848;39.002;-94.584;2023-04-24T13:37:30;16.60;41.10
62809;DHT22;48848;39.002;-94.584;2023-04-24T13:39:55;16.60;41.00
62809;DHT22;48848;39.002;-94.584;2023-04-24T13:42:21;16.50;41.20
62809;DHT22;48848;39.002;-94.584;2023-04-24T13:44:47;16.50;41.30
62809;DHT22;48848;39.002;-94.584;2023-04-24T13:47:13;16.50;41.60
62809;DHT22;48848;39.002;-94.584;2023-04-24T13:49:39;16.40;42.00
62809;DHT22;48848;39.002;-94.584;2023-04-24T13:52:05;16.40;41.40
62809;DHT22;48848;39.002;-94.584;2023-04-24T13:54:31;16.60;41.50
62809;DHT22;48848;39.002;-94.584;2023-04-24T13:56:58;17.30;40.20
62809;DHT22;48848;39.002;-94.584;2023-04-24T13:59:25;17.90;39.80
62809;DHT22;48848;39.002;-94.584;2023-04-24T14:01:51;18.40;38.80
62809;DHT22;48848;39.002;-94.584;2023-04-24T14:04:17;18.70;37.40
62809;DHT22;48848;39.002;-94.584;2023-04-24T14:06:43;18.40;38.10
62809;DHT22;48848;39.002;-94.584;2023-04-24T14:09:09;18.00;38.90
62809;DHT22;48848;39.002;-94.584;2023-04-24T14:11:35;17.80;39.40
62809;DHT22;48848;39.002;-94.584;2023-04-24T14:14:01;17.50;39.30
62809;DHT22;48848;39.002;-94.584;2023-04-24T14:16:27;17.40;39.80
62809;DHT22;48848;39.002;-94.584;2023-04-24T14:18:53;17.30;40.00
62809;DHT22;48848;39.002;-94.584;2023-04-24T14:21:19;17.20;40.20
62809;DHT22;48848;39.002;-94.584;2023-04-24T14:23:45;17.10;40.00
62809;DHT22;48848;39.002;-94.584;2023-04-24T14:26:11;17.10;40.00
62809;DHT22;48848;39.002;-94.584;2023-04-24T14:28:37;17.00;40.10
62809;DHT22;48848;39.002;-94.584;2023-04-24T14:31:02;17.00;40.50
62809;DHT22;48848;39.002;-94.584;2023-04-24T14:33:28;16.90;40.70
62809;DHT22;48848;39.002;-94.584;2023-04-24T14:35:54;16.90;40.40
62809;DHT22;48848;39.002;-94.584;2023-04-24T14:38:21;16.90;40.20
62809;DHT22;48848;39.002;-94.584;2023-04-24T14:40:47;16.90;40.80
62809;DHT22;48848;39.002;-94.584;2023-04-24T14:43:13;16.90;40.60
62809;DHT22;48848;39.002;-94.584;2023-04-24T14:45:39;16.80;40.80
62809;DHT22;48848;39.002;-94.584;2023-04-24T14:48:07;16.80;40.60
62809;DHT22;48848;39.002;-94.584;2023-04-24T14:50:33;16.80;40.70
62809;DHT22;48848;39.002;-94.584;2023-04-24T14:53:00;16.80;40.80
62809;DHT22;48848;39.002;-94.584;2023-04-24T14:55:27;16.80;40.90
62809;DHT22;48848;39.002;-94.584;2023-04-24T14:57:54;16.80;40.90
62809;DHT22;48848;39.002;-94.584;2023-04-24T15:00:20;16.80;40.90
62809;DHT22;48848;39.002;-94.584;2023-04-24T15:02:46;16.70;41.10
62809;DHT22;48848;39.002;-94.584;2023-04-24T15:05:12;16.70;40.80
62809;DHT22;48848;39.002;-94.584;2023-04-24T15:07:38;16.70;40.80